sensor_id;sensor_type;location;lat;lon;timestamp;P1;durP1;ratioP1;P2;durP2;ratioP2
41099;SDS011;26844;53.686;-6.346;2022-12-18T00:01:32;68.25;;;65.07;;
41099;SDS011;26844;53.686;-6.346;2022-12-18T00:03:58;67.38;;;63.65;;
41099;SDS011;26844;53.686;-6.346;2022-12-18T00:06:25;64.55;;;61.53;;
41099;SDS011;26844;53.686;-6.346;2022-12-18T00:08:50;59.90;;;57.13;;
41099;SDS011;26844;53.686;-6.346;2022-12-18T00:11:17;62.95;;;59.70;;
41099;SDS011;26844;53.686;-6.346;2022-12-18T00:13:43;57.33;;;54.40;;
41099;SDS011;26844;53.686;-6.346;2022-12-18T00:16:10;60.33;;;57.33;;
41099;SDS011;26844;53.686;-6.346;2022-12-18T00:18:35;65.15;;;62.00;;
41099;SDS011;26844;53.686;-6.346;2022-12-18T00:21:01;65.53;;;62.00;;
41099;SDS011;26844;53.686;-6.346;2022-12-18T00:23:28;67.30;;;64.07;;
41099;SDS011;26844;53.686;-6.346;2022-12-18T00:25:53;70.85;;;67.53;;
41099;SDS011;26844;53.686;-6.346;2022-12-18T00:28:18;64.55;;;61.58;;
41099;SDS011;26844;53.686;-6.346;2022-12-18T00:30:43;69.60;;;66.30;;
41099;SDS011;26844;53.686;-6.346;2022-12-18T00:33:09;68.30;;;64.95;;
41099;SDS011;26844;53.686;-6.346;2022-12-18T00:35:34;62.83;;;59.88;;
41099;SDS011;26844;53.686;-6.346;2022-12-18T00:37:59;62.92;;;59.72;;
41099;SDS011;26844;53.686;-6.346;2022-12-18T00:40:24;62.00;;;58.78;;
41099;SDS011;26844;53.686;-6.346;2022-12-18T00:42:50;75.63;;;72.07;;
41099;SDS011;26844;53.686;-6.346;2022-12-18T00:45:22;82.90;;;79.03;;
41099;SDS011;26844;53.686;-6.346;2022-12-18T00:47:47;76.82;;;73.32;;
41099;SDS011;26844;53.686;-6.346;2022-12-18T00:50:13;89.47;;;85.32;;
41099;SDS011;26844;53.686;-6.346;2022-12-18T00:52:38;80.40;;;76.60;;
41099;SDS011;26844;53.686;-6.346;2022-12-18T00:55:03;73.57;;;69.95;;
41099;SDS011;26844;53.686;-6.346;2022-12-18T00:57:28;81.95;;;78.07;;
41099;SDS011;26844;53.686;-6.346;2022-12-18T00:59:54;72.65;;;69.18;;
41099;SDS011;26844;53.686;-6.346;2022-12-18T01:02:19;77.43;;;73.78;;
41099;SDS011;26844;53.686;-6.346;2022-12-18T01:04:44;79.53;;;75.72;;
41099;SDS011;26844;53.686;-6.346;2022-12-18T01:07:09;77.78;;;74.25;;
41099;SDS011;26844;53.686;-6.346;2022-12-18T01:09:35;65.63;;;62.60;;
41099;SDS011;26844;53.686;-6.346;2022-12-18T01:12:00;80.57;;;77.00;;
41099;SDS011;26844;53.686;-6.346;2022-12-18T01:14:25;101.75;;;97.07;;
41099;SDS011;26844;53.686;-6.346;2022-12-18T01:16:50;107.40;;;102.40;;
41099;SDS011;26844;53.686;-6.346;2022-12-18T01:19:16;100.35;;;95.93;;
41099;SDS011;26844;53.686;-6.346;2022-12-18T01:21:41;118.90;;;113.68;;
41099;SDS011;26844;53.686;-6.346;2022-12-18T01:24:06;99.03;;;94.63;;
41099;SDS011;26844;53.686;-6.346;2022-12-18T01:26:32;112.55;;;107.50;;
41099;SDS011;26844;53.686;-6.346;2022-12-18T01:28:57;90.07;;;85.50;;
41099;SDS011;26844;53.686;-6.346;2022-12-18T01:31:27;98.22;;;93.40;;
41099;SDS011;26844;53.686;-6.346;2022-12-18T01:33:52;94.97;;;90.68;;
41099;SDS011;26844;53.686;-6.346;2022-12-18T01:38:43;91.07;;;86.95;;
41099;SDS011;26844;53.686;-6.346;2022-12-18T01:41:09;87.55;;;83.38;;
41099;SDS011;26844;53.686;-6.346;2022-12-18T01:43:53;77.97;;;74.38;;
41099;SDS011;26844;53.686;-6.346;2022-12-18T01:46:20;87.85;;;83.90;;
41099;SDS011;26844;53.686;-6.346;2022-12-18T01:48:49;62.45;;;59.50;;
41099;SDS011;26844;53.686;-6.346;2022-12-18T01:51:15;60.83;;;58.15;;
41099;SDS011;26844;53.686;-6.346;2022-12-18T01:53:41;46.95;;;44.65;;
41099;SDS011;26844;53.686;-6.346;2022-12-18T01:56:06;45.03;;;42.88;;
41099;SDS011;26844;53.686;-6.346;2022-12-18T02:00:57;37.70;;;35.95;;
41099;SDS011;26844;53.686;-6.346;2022-12-18T02:03:22;29.45;;;27.80;;
41099;SDS011;26844;53.686;-6.346;2022-12-18T02:05:55;29.50;;;27.90;;
41099;SDS011;26844;53.686;-6.346;2022-12-18T02:13:45;47.80;;;45.53;;
41099;SDS011;26844;53.686;-6.346;2022-12-18T02:18:58;51.72;;;49.38;;
41099;SDS011;26844;53.686;-6.346;2022-12-18T02:22:12;49.78;;;47.45;;
41099;SDS011;26844;53.686;-6.346;2022-12-18T02:26:46;55.20;;;52.60;;
41099;SDS011;26844;53.686;-6.346;2022-12-18T02:29:17;57.08;;;54.38;;
41099;SDS011;26844;53.686;-6.346;2022-12-18T02:31:45;60.90;;;57.92;;
41099;SDS011;26844;53.686;-6.346;2022-12-18T02:34:11;46.28;;;44.20;;
41099;SDS011;26844;53.686;-6.346;2022-12-18T02:36:39;40.30;;;38.15;;
41099;SDS011;26844;53.686;-6.346;2022-12-18T02:39:06;41.85;;;39.80;;
41099;SDS011;26844;53.686;-6.346;2022-12-18T02:41:32;49.97;;;47.80;;
41099;SDS011;26844;53.686;-6.346;2022-12-18T02:43:59;38.22;;;36.47;;
41099;SDS011;26844;53.686;-6.346;2022-12-18T02:46:43;52.47;;;50.00;;
41099;SDS011;26844;53.686;-6.346;2022-12-18T02:54:09;46.92;;;44.20;;
41099;SDS011;26844;53.686;-6.346;2022-12-18T02:56:38;55.30;;;52.80;;
41099;SDS011;26844;53.686;-6.346;2022-12-18T02:59:12;44.45;;;42.30;;
41099;SDS011;26844;53.686;-6.346;2022-12-18T03:02:02;55.03;;;52.45;;
41099;SDS011;26844;53.686;-6.346;2022-12-18T03:04:32;48.33;;;46.17;;
41099;SDS011;26844;53.686;-6.346;2022-12-18T03:07:02;55.22;;;52.47;;
41099;SDS011;26844;53.686;-6.346;2022-12-18T03:09:29;50.15;;;47.67;;
41099;SDS011;26844;53.686;-6.346;2022-12-18T03:11:57;53.25;;;50.40;;
41099;SDS011;26844;53.686;-6.346;2022-12-18T03:14:42;61.78;;;58.47;;
41099;SDS011;26844;53.686;-6.346;2022-12-18T03:17:09;83.15;;;78.90;;
41099;SDS011;26844;53.686;-6.346;2022-12-18T03:19:35;103.82;;;99.20;;
41099;SDS011;26844;53.686;-6.346;2022-12-18T03:22:01;103.40;;;98.82;;
41099;SDS011;26844;53.686;-6.346;2022-12-18T03:24:28;134.38;;;127.88;;
41099;SDS011;26844;53.686;-6.346;2022-12-18T03:26:54;132.13;;;126.10;;
41099;SDS011;26844;53.686;-6.346;2022-12-18T03:31:48;179.13;;;170.32;;
41099;SDS011;26844;53.686;-6.346;2022-12-18T03:34:15;165.27;;;156.93;;
41099;SDS011;26844;53.686;-6.346;2022-12-18T03:36:43;160.25;;;153.13;;
41099;SDS011;26844;53.686;-6.346;2022-12-18T03:39:08;151.55;;;144.45;;
41099;SDS011;26844;53.686;-6.346;2022-12-18T03:41:36;150.63;;;143.57;;
41099;SDS011;26844;53.686;-6.346;2022-12-18T03:44:26;136.95;;;129.60;;
41099;SDS011;26844;53.686;-6.346;2022-12-18T03:47:27;158.23;;;149.48;;
41099;SDS011;26844;53.686;-6.346;2022-12-18T03:52:11;145.50;;;138.70;;
41099;SDS011;26844;53.686;-6.346;2022-12-18T03:54:37;140.48;;;133.90;;
41099;SDS011;26844;53.686;-6.346;2022-12-18T03:57:08;142.80;;;136.38;;
41099;SDS011;26844;53.686;-6.346;2022-12-18T03:59:34;131.88;;;125.72;;
41099;SDS011;26844;53.686;-6.346;2022-12-18T04:02:01;158.13;;;150.57;;
41099;SDS011;26844;53.686;-6.346;2022-12-18T04:04:27;172.98;;;164.93;;
41099;SDS011;26844;53.686;-6.346;2022-12-18T04:06:52;158.70;;;151.27;;
41099;SDS011;26844;53.686;-6.346;2022-12-18T04:09:18;133.02;;;127.00;;
41099;SDS011;26844;53.686;-6.346;2022-12-18T04:11:43;149.57;;;141.85;;
41099;SDS011;26844;53.686;-6.346;2022-12-18T04:14:09;137.93;;;131.50;;
41099;SDS011;26844;53.686;-6.346;2022-12-18T04:16:34;145.10;;;138.32;;
41099;SDS011;26844;53.686;-6.346;2022-12-18T04:18:59;154.52;;;146.93;;
41099;SDS011;26844;53.686;-6.346;2022-12-18T04:21:25;153.85;;;146.23;;
41099;SDS011;26844;53.686;-6.346;2022-12-18T04:23:50;127.03;;;120.93;;
41099;SDS011;26844;53.686;-6.346;2022-12-18T04:26:15;164.02;;;156.63;;
41099;SDS011;26844;53.686;-6.346;2022-12-18T04:28:40;139.48;;;132.80;;
41099;SDS011;26844;53.686;-6.346;2022-12-18T04:31:06;127.05;;;120.45;;
41099;SDS011;26844;53.686;-6.346;2022-12-18T04:33:31;132.98;;;126.35;;
41099;SDS011;26844;53.686;-6.346;2022-12-18T04:35:56;162.48;;;154.88;;
41099;SDS011;26844;53.686;-6.346;2022-12-18T04:38:22;156.10;;;148.25;;
41099;SDS011;26844;53.686;-6.346;2022-12-18T04:40:47;163.18;;;155.23;;
41099;SDS011;26844;53.686;-6.346;2022-12-18T04:43:12;161.85;;;153.98;;
41099;SDS011;26844;53.686;-6.346;2022-12-18T04:45:37;154.27;;;146.93;;
41099;SDS011;26844;53.686;-6.346;2022-12-18T04:48:03;129.98;;;123.82;;
41099;SDS011;26844;53.686;-6.346;2022-12-18T04:50:29;140.88;;;133.90;;
41099;SDS011;26844;53.686;-6.346;2022-12-18T04:52:54;164.07;;;156.20;;
41099;SDS011;26844;53.686;-6.346;2022-12-18T04:55:19;168.68;;;160.30;;
41099;SDS011;26844;53.686;-6.346;2022-12-18T04:57:45;179.43;;;170.75;;
41099;SDS011;26844;53.686;-6.346;2022-12-18T05:00:10;164.38;;;156.23;;
41099;SDS011;26844;53.686;-6.346;2022-12-18T05:02:35;177.25;;;168.80;;
41099;SDS011;26844;53.686;-6.346;2022-12-18T05:05:01;185.98;;;176.65;;
41099;SDS011;26844;53.686;-6.346;2022-12-18T05:07:26;158.35;;;150.70;;
41099;SDS011;26844;53.686;-6.346;2022-12-18T05:09:51;135.02;;;127.43;;
41099;SDS011;26844;53.686;-6.346;2022-12-18T05:12:16;149.48;;;141.23;;
41099;SDS011;26844;53.686;-6.346;2022-12-18T05:14:41;145.00;;;136.95;;
41099;SDS011;26844;53.686;-6.346;2022-12-18T05:17:07;138.77;;;131.35;;
41099;SDS011;26844;53.686;-6.346;2022-12-18T05:19:32;147.30;;;139.50;;
41099;SDS011;26844;53.686;-6.346;2022-12-18T05:21:57;133.27;;;125.80;;
41099;SDS011;26844;53.686;-6.346;2022-12-18T05:24:23;125.25;;;118.95;;
41099;SDS011;26844;53.686;-6.346;2022-12-18T05:26:48;91.68;;;86.22;;
41099;SDS011;26844;53.686;-6.346;2022-12-18T05:29:13;75.20;;;70.72;;
41099;SDS011;26844;53.686;-6.346;2022-12-18T05:31:39;78.97;;;74.15;;
41099;SDS011;26844;53.686;-6.346;2022-12-18T05:34:04;80.00;;;75.07;;
41099;SDS011;26844;53.686;-6.346;2022-12-18T05:36:30;67.53;;;62.83;;
41099;SDS011;26844;53.686;-6.346;2022-12-18T05:38:55;59.25;;;55.40;;
41099;SDS011;26844;53.686;-6.346;2022-12-18T05:41:20;78.95;;;73.72;;
41099;SDS011;26844;53.686;-6.346;2022-12-18T05:43:46;75.28;;;71.10;;
41099;SDS011;26844;53.686;-6.346;2022-12-18T05:46:12;65.05;;;60.83;;
41099;SDS011;26844;53.686;-6.346;2022-12-18T05:48:38;77.90;;;73.63;;
41099;SDS011;26844;53.686;-6.346;2022-12-18T05:51:07;72.88;;;68.38;;
41099;SDS011;26844;53.686;-6.346;2022-12-18T05:53:33;74.15;;;70.25;;
41099;SDS011;26844;53.686;-6.346;2022-12-18T05:56:02;74.80;;;69.93;;
41099;SDS011;26844;53.686;-6.346;2022-12-18T05:58:28;85.53;;;80.55;;
41099;SDS011;26844;53.686;-6.346;2022-12-18T06:00:53;71.63;;;66.75;;
41099;SDS011;26844;53.686;-6.346;2022-12-18T06:03:18;98.72;;;93.20;;
41099;SDS011;26844;53.686;-6.346;2022-12-18T06:05:44;70.85;;;66.65;;
41099;SDS011;26844;53.686;-6.346;2022-12-18T06:08:10;96.60;;;90.90;;
41099;SDS011;26844;53.686;-6.346;2022-12-18T06:10:35;82.68;;;77.80;;
41099;SDS011;26844;53.686;-6.346;2022-12-18T06:13:01;106.20;;;100.43;;
41099;SDS011;26844;53.686;-6.346;2022-12-18T06:15:26;93.53;;;87.97;;
41099;SDS011;26844;53.686;-6.346;2022-12-18T06:17:51;79.55;;;74.20;;
41099;SDS011;26844;53.686;-6.346;2022-12-18T06:20:16;87.40;;;82.82;;
41099;SDS011;26844;53.686;-6.346;2022-12-18T06:22:42;86.80;;;81.93;;
41099;SDS011;26844;53.686;-6.346;2022-12-18T06:25:07;90.25;;;85.13;;
41099;SDS011;26844;53.686;-6.346;2022-12-18T06:27:32;99.80;;;94.32;;
41099;SDS011;26844;53.686;-6.346;2022-12-18T06:29:58;84.43;;;79.03;;
41099;SDS011;26844;53.686;-6.346;2022-12-18T06:32:24;89.05;;;84.15;;
41099;SDS011;26844;53.686;-6.346;2022-12-18T06:34:49;97.45;;;92.03;;
41099;SDS011;26844;53.686;-6.346;2022-12-18T06:37:14;113.03;;;106.82;;
41099;SDS011;26844;53.686;-6.346;2022-12-18T06:39:39;86.70;;;82.43;;
41099;SDS011;26844;53.686;-6.346;2022-12-18T06:42:05;90.55;;;84.97;;
41099;SDS011;26844;53.686;-6.346;2022-12-18T06:44:30;91.03;;;86.07;;
41099;SDS011;26844;53.686;-6.346;2022-12-18T06:46:55;98.00;;;92.43;;
41099;SDS011;26844;53.686;-6.346;2022-12-18T06:49:20;85.53;;;81.00;;
41099;SDS011;26844;53.686;-6.346;2022-12-18T06:51:46;84.88;;;80.00;;
41099;SDS011;26844;53.686;-6.346;2022-12-18T06:54:11;78.75;;;73.85;;
41099;SDS011;26844;53.686;-6.346;2022-12-18T06:56:36;81.00;;;76.25;;
41099;SDS011;26844;53.686;-6.346;2022-12-18T06:59:01;91.70;;;86.38;;
41099;SDS011;26844;53.686;-6.346;2022-12-18T07:01:27;96.13;;;90.38;;
41099;SDS011;26844;53.686;-6.346;2022-12-18T07:03:53;88.43;;;83.80;;
41099;SDS011;26844;53.686;-6.346;2022-12-18T07:06:19;104.93;;;99.75;;
41099;SDS011;26844;53.686;-6.346;2022-12-18T07:08:45;103.78;;;98.43;;
41099;SDS011;26844;53.686;-6.346;2022-12-18T07:11:11;108.75;;;102.82;;
41099;SDS011;26844;53.686;-6.346;2022-12-18T07:13:37;94.55;;;89.70;;
41099;SDS011;26844;53.686;-6.346;2022-12-18T07:16:03;91.22;;;86.63;;
41099;SDS011;26844;53.686;-6.346;2022-12-18T07:18:28;94.15;;;88.82;;
41099;SDS011;26844;53.686;-6.346;2022-12-18T07:20:53;115.95;;;109.40;;
41099;SDS011;26844;53.686;-6.346;2022-12-18T07:23:18;106.35;;;100.45;;
41099;SDS011;26844;53.686;-6.346;2022-12-18T07:25:44;107.53;;;102.25;;
41099;SDS011;26844;53.686;-6.346;2022-12-18T07:28:09;96.57;;;91.43;;
41099;SDS011;26844;53.686;-6.346;2022-12-18T07:30:36;96.88;;;91.25;;
41099;SDS011;26844;53.686;-6.346;2022-12-18T07:33:01;102.35;;;96.80;;
41099;SDS011;26844;53.686;-6.346;2022-12-18T07:35:26;89.78;;;84.97;;
41099;SDS011;26844;53.686;-6.346;2022-12-18T07:37:52;100.03;;;94.57;;
41099;SDS011;26844;53.686;-6.346;2022-12-18T07:40:17;100.05;;;94.80;;
41099;SDS011;26844;53.686;-6.346;2022-12-18T07:42:42;93.38;;;89.07;;
41099;SDS011;26844;53.686;-6.346;2022-12-18T07:45:08;77.20;;;73.20;;
41099;SDS011;26844;53.686;-6.346;2022-12-18T07:47:34;102.05;;;96.68;;
41099;SDS011;26844;53.686;-6.346;2022-12-18T07:50:01;111.93;;;105.80;;
41099;SDS011;26844;53.686;-6.346;2022-12-18T07:52:26;81.70;;;77.80;;
41099;SDS011;26844;53.686;-6.346;2022-12-18T07:54:51;118.95;;;113.38;;
41099;SDS011;26844;53.686;-6.346;2022-12-18T07:57:16;92.72;;;88.18;;
41099;SDS011;26844;53.686;-6.346;2022-12-18T07:59:42;86.57;;;82.13;;
41099;SDS011;26844;53.686;-6.346;2022-12-18T08:02:07;90.57;;;85.50;;
41099;SDS011;26844;53.686;-6.346;2022-12-18T08:04:34;106.97;;;101.50;;
41099;SDS011;26844;53.686;-6.346;2022-12-18T08:06:59;100.30;;;94.88;;
41099;SDS011;26844;53.686;-6.346;2022-12-18T08:09:24;100.35;;;95.03;;
41099;SDS011;26844;53.686;-6.346;2022-12-18T08:11:50;114.75;;;108.32;;
41099;SDS011;26844;53.686;-6.346;2022-12-18T08:14:15;90.32;;;85.40;;
41099;SDS011;26844;53.686;-6.346;2022-12-18T08:16:40;83.80;;;79.15;;
41099;SDS011;26844;53.686;-6.346;2022-12-18T08:19:05;67.60;;;63.50;;
41099;SDS011;26844;53.686;-6.346;2022-12-18T08:21:31;83.85;;;79.35;;
41099;SDS011;26844;53.686;-6.346;2022-12-18T08:23:57;70.57;;;65.85;;
41099;SDS011;26844;53.686;-6.346;2022-12-18T08:26:23;75.60;;;71.28;;
41099;SDS011;26844;53.686;-6.346;2022-12-18T08:28:49;84.68;;;79.60;;
41099;SDS011;26844;53.686;-6.346;2022-12-18T08:31:14;98.50;;;93.10;;
41099;SDS011;26844;53.686;-6.346;2022-12-18T08:33:40;97.03;;;91.95;;
41099;SDS011;26844;53.686;-6.346;2022-12-18T08:36:05;122.95;;;115.75;;
41099;SDS011;26844;53.686;-6.346;2022-12-18T08:38:31;109.82;;;104.15;;
41099;SDS011;26844;53.686;-6.346;2022-12-18T08:43:25;133.02;;;126.50;;
41099;SDS011;26844;53.686;-6.346;2022-12-18T08:46:09;138.32;;;131.60;;
41099;SDS011;26844;53.686;-6.346;2022-12-18T08:48:34;126.80;;;120.45;;
41099;SDS011;26844;53.686;-6.346;2022-12-18T08:51:00;117.47;;;110.80;;
41099;SDS011;26844;53.686;-6.346;2022-12-18T08:53:26;137.63;;;130.77;;
41099;SDS011;26844;53.686;-6.346;2022-12-18T08:55:51;126.95;;;120.93;;
41099;SDS011;26844;53.686;-6.346;2022-12-18T08:58:16;135.57;;;129.20;;
41099;SDS011;26844;53.686;-6.346;2022-12-18T09:00:42;131.40;;;124.78;;
41099;SDS011;26844;53.686;-6.346;2022-12-18T09:03:13;108.63;;;103.20;;
41099;SDS011;26844;53.686;-6.346;2022-12-18T09:05:39;96.90;;;91.97;;
41099;SDS011;26844;53.686;-6.346;2022-12-18T09:08:04;103.75;;;98.18;;
41099;SDS011;26844;53.686;-6.346;2022-12-18T09:10:29;99.78;;;94.93;;
41099;SDS011;26844;53.686;-6.346;2022-12-18T09:12:55;82.40;;;78.00;;
41099;SDS011;26844;53.686;-6.346;2022-12-18T09:15:21;91.50;;;86.55;;
41099;SDS011;26844;53.686;-6.346;2022-12-18T09:17:46;100.72;;;95.75;;
41099;SDS011;26844;53.686;-6.346;2022-12-18T09:20:13;87.47;;;83.15;;
41099;SDS011;26844;53.686;-6.346;2022-12-18T09:22:38;93.53;;;88.75;;
41099;SDS011;26844;53.686;-6.346;2022-12-18T09:25:03;86.90;;;82.05;;
41099;SDS011;26844;53.686;-6.346;2022-12-18T09:27:28;90.28;;;84.88;;
41099;SDS011;26844;53.686;-6.346;2022-12-18T09:29:54;80.10;;;75.60;;
41099;SDS011;26844;53.686;-6.346;2022-12-18T09:32:19;78.65;;;74.55;;
41099;SDS011;26844;53.686;-6.346;2022-12-18T09:34:44;84.25;;;79.10;;
41099;SDS011;26844;53.686;-6.346;2022-12-18T09:37:10;85.25;;;81.00;;
41099;SDS011;26844;53.686;-6.346;2022-12-18T09:39:35;85.15;;;80.75;;
41099;SDS011;26844;53.686;-6.346;2022-12-18T09:42:00;79.85;;;76.10;;
41099;SDS011;26844;53.686;-6.346;2022-12-18T09:44:36;65.95;;;62.45;;
41099;SDS011;26844;53.686;-6.346;2022-12-18T09:47:10;64.88;;;61.03;;
41099;SDS011;26844;53.686;-6.346;2022-12-18T09:49:40;65.50;;;61.67;;
41099;SDS011;26844;53.686;-6.346;2022-12-18T09:52:11;81.68;;;77.47;;
41099;SDS011;26844;53.686;-6.346;2022-12-18T09:54:41;71.78;;;67.93;;
41099;SDS011;26844;53.686;-6.346;2022-12-18T09:57:10;75.18;;;71.32;;
41099;SDS011;26844;53.686;-6.346;2022-12-18T09:59:38;72.97;;;69.07;;
41099;SDS011;26844;53.686;-6.346;2022-12-18T10:02:14;73.05;;;68.75;;
41099;SDS011;26844;53.686;-6.346;2022-12-18T10:04:39;66.72;;;63.28;;
41099;SDS011;26844;53.686;-6.346;2022-12-18T10:24:26;74.28;;;70.32;;
41099;SDS011;26844;53.686;-6.346;2022-12-18T10:26:55;74.63;;;70.95;;
41099;SDS011;26844;53.686;-6.346;2022-12-18T10:29:24;68.63;;;65.07;;
41099;SDS011;26844;53.686;-6.346;2022-12-18T10:31:50;69.93;;;66.20;;
41099;SDS011;26844;53.686;-6.346;2022-12-18T10:34:15;74.18;;;70.60;;
41099;SDS011;26844;53.686;-6.346;2022-12-18T10:36:40;74.93;;;70.25;;
41099;SDS011;26844;53.686;-6.346;2022-12-18T10:39:17;76.13;;;72.57;;
41099;SDS011;26844;53.686;-6.346;2022-12-18T10:41:42;83.97;;;80.05;;
41099;SDS011;26844;53.686;-6.346;2022-12-18T10:44:10;83.97;;;79.53;;
41099;SDS011;26844;53.686;-6.346;2022-12-18T10:46:35;85.93;;;81.65;;
41099;SDS011;26844;53.686;-6.346;2022-12-18T10:49:01;85.97;;;81.75;;
41099;SDS011;26844;53.686;-6.346;2022-12-18T10:51:27;72.32;;;68.63;;
41099;SDS011;26844;53.686;-6.346;2022-12-18T10:53:54;85.63;;;81.28;;
41099;SDS011;26844;53.686;-6.346;2022-12-18T10:58:55;87.10;;;82.93;;
41099;SDS011;26844;53.686;-6.346;2022-12-18T11:01:21;71.72;;;67.57;;
41099;SDS011;26844;53.686;-6.346;2022-12-18T11:06:16;80.88;;;76.88;;
41099;SDS011;26844;53.686;-6.346;2022-12-18T11:08:42;81.63;;;76.55;;
41099;SDS011;26844;53.686;-6.346;2022-12-18T11:11:29;74.40;;;70.72;;
41099;SDS011;26844;53.686;-6.346;2022-12-18T11:16:21;83.13;;;79.05;;
41099;SDS011;26844;53.686;-6.346;2022-12-18T11:18:46;71.57;;;68.15;;
41099;SDS011;26844;53.686;-6.346;2022-12-18T11:21:12;78.13;;;74.07;;
41099;SDS011;26844;53.686;-6.346;2022-12-18T11:23:45;66.72;;;63.42;;
41099;SDS011;26844;53.686;-6.346;2022-12-18T11:26:11;83.40;;;78.82;;
41099;SDS011;26844;53.686;-6.346;2022-12-18T11:28:40;74.80;;;71.07;;
41099;SDS011;26844;53.686;-6.346;2022-12-18T11:33:34;75.18;;;71.50;;
41099;SDS011;26844;53.686;-6.346;2022-12-18T11:36:02;79.47;;;75.57;;
41099;SDS011;26844;53.686;-6.346;2022-12-18T11:38:35;76.88;;;73.15;;
41099;SDS011;26844;53.686;-6.346;2022-12-18T11:43:45;78.30;;;74.22;;
41099;SDS011;26844;53.686;-6.346;2022-12-18T11:46:15;81.32;;;77.53;;
41099;SDS011;26844;53.686;-6.346;2022-12-18T11:51:15;82.82;;;78.93;;
41099;SDS011;26844;53.686;-6.346;2022-12-18T11:53:46;73.70;;;70.25;;
41099;SDS011;26844;53.686;-6.346;2022-12-18T11:56:16;82.28;;;78.13;;
41099;SDS011;26844;53.686;-6.346;2022-12-18T12:11:41;80.07;;;76.22;;
41099;SDS011;26844;53.686;-6.346;2022-12-18T12:19:23;83.35;;;78.60;;
41099;SDS011;26844;53.686;-6.346;2022-12-18T12:21:55;74.00;;;70.07;;
41099;SDS011;26844;53.686;-6.346;2022-12-18T12:26:51;78.70;;;74.80;;
41099;SDS011;26844;53.686;-6.346;2022-12-18T12:37:36;87.38;;;83.05;;
41099;SDS011;26844;53.686;-6.346;2022-12-18T12:40:06;78.40;;;74.47;;
41099;SDS011;26844;53.686;-6.346;2022-12-18T12:42:34;76.38;;;72.88;;
41099;SDS011;26844;53.686;-6.346;2022-12-18T12:45:28;81.95;;;78.13;;
41099;SDS011;26844;53.686;-6.346;2022-12-18T12:47:55;83.10;;;79.03;;
41099;SDS011;26844;53.686;-6.346;2022-12-18T12:50:22;99.65;;;94.85;;
41099;SDS011;26844;53.686;-6.346;2022-12-18T12:52:49;108.43;;;103.43;;
41099;SDS011;26844;53.686;-6.346;2022-12-18T12:55:17;120.90;;;115.00;;
41099;SDS011;26844;53.686;-6.346;2022-12-18T12:57:45;103.15;;;98.32;;
41099;SDS011;26844;53.686;-6.346;2022-12-18T13:00:13;109.25;;;104.18;;
41099;SDS011;26844;53.686;-6.346;2022-12-18T13:07:55;107.22;;;101.63;;
41099;SDS011;26844;53.686;-6.346;2022-12-18T13:13:14;154.88;;;147.73;;
41099;SDS011;26844;53.686;-6.346;2022-12-18T13:20:38;178.63;;;170.48;;
41099;SDS011;26844;53.686;-6.346;2022-12-18T13:23:19;172.73;;;164.50;;
41099;SDS011;26844;53.686;-6.346;2022-12-18T13:25:44;152.98;;;145.57;;
41099;SDS011;26844;53.686;-6.346;2022-12-18T13:38:45;138.98;;;132.65;;
41099;SDS011;26844;53.686;-6.346;2022-12-18T13:41:12;172.32;;;164.30;;
41099;SDS011;26844;53.686;-6.346;2022-12-18T13:43:49;130.45;;;124.38;;
41099;SDS011;26844;53.686;-6.346;2022-12-18T13:51:24;99.28;;;94.72;;
41099;SDS011;26844;53.686;-6.346;2022-12-18T13:56:25;77.97;;;73.75;;
41099;SDS011;26844;53.686;-6.346;2022-12-18T14:01:35;91.97;;;87.68;;
41099;SDS011;26844;53.686;-6.346;2022-12-18T14:04:18;65.97;;;62.30;;
41099;SDS011;26844;53.686;-6.346;2022-12-18T14:06:58;32.58;;;30.25;;
41099;SDS011;26844;53.686;-6.346;2022-12-18T14:09:28;40.28;;;38.05;;
41099;SDS011;26844;53.686;-6.346;2022-12-18T14:11:54;32.15;;;30.23;;
41099;SDS011;26844;53.686;-6.346;2022-12-18T14:14:41;42.63;;;40.25;;
41099;SDS011;26844;53.686;-6.346;2022-12-18T14:17:08;21.38;;;20.05;;
41099;SDS011;26844;53.686;-6.346;2022-12-18T14:19:34;16.25;;;15.05;;
41099;SDS011;26844;53.686;-6.346;2022-12-18T14:22:00;18.45;;;17.23;;
41099;SDS011;26844;53.686;-6.346;2022-12-18T14:24:26;24.30;;;22.80;;
41099;SDS011;26844;53.686;-6.346;2022-12-18T14:26:51;16.02;;;15.02;;
41099;SDS011;26844;53.686;-6.346;2022-12-18T14:29:27;18.88;;;17.75;;
41099;SDS011;26844;53.686;-6.346;2022-12-18T14:34:30;26.15;;;24.52;;
41099;SDS011;26844;53.686;-6.346;2022-12-18T14:36:55;15.88;;;14.95;;
41099;SDS011;26844;53.686;-6.346;2022-12-18T14:39:21;22.40;;;20.73;;
41099;SDS011;26844;53.686;-6.346;2022-12-18T14:41:48;25.50;;;23.85;;
41099;SDS011;26844;53.686;-6.346;2022-12-18T14:44:13;23.33;;;21.98;;
41099;SDS011;26844;53.686;-6.346;2022-12-18T14:46:39;28.80;;;27.33;;
41099;SDS011;26844;53.686;-6.346;2022-12-18T14:51:49;26.15;;;24.65;;
41099;SDS011;26844;53.686;-6.346;2022-12-18T14:54:16;38.17;;;36.07;;
41099;SDS011;26844;53.686;-6.346;2022-12-18T14:59:26;36.60;;;34.42;;
41099;SDS011;26844;53.686;-6.346;2022-12-18T15:04:38;66.65;;;63.13;;
41099;SDS011;26844;53.686;-6.346;2022-12-18T15:07:17;62.15;;;59.10;;
41099;SDS011;26844;53.686;-6.346;2022-12-18T15:09:44;49.38;;;46.83;;
41099;SDS011;26844;53.686;-6.346;2022-12-18T15:12:34;34.88;;;32.70;;
41099;SDS011;26844;53.686;-6.346;2022-12-18T15:15:00;26.25;;;24.65;;
41099;SDS011;26844;53.686;-6.346;2022-12-18T15:17:25;35.08;;;33.45;;
41099;SDS011;26844;53.686;-6.346;2022-12-18T15:19:52;33.33;;;31.55;;
41099;SDS011;26844;53.686;-6.346;2022-12-18T15:22:19;17.03;;;16.03;;
41099;SDS011;26844;53.686;-6.346;2022-12-18T15:24:45;19.75;;;18.08;;
41099;SDS011;26844;53.686;-6.346;2022-12-18T15:32:30;16.08;;;14.88;;
41099;SDS011;26844;53.686;-6.346;2022-12-18T15:35:28;16.10;;;15.23;;
41099;SDS011;26844;53.686;-6.346;2022-12-18T15:37:46;53.00;;;50.17;;
41099;SDS011;26844;53.686;-6.346;2022-12-18T15:40:16;24.30;;;22.55;;
41099;SDS011;26844;53.686;-6.346;2022-12-18T15:42:42;21.63;;;20.33;;
41099;SDS011;26844;53.686;-6.346;2022-12-18T15:45:26;43.53;;;41.35;;
41099;SDS011;26844;53.686;-6.346;2022-12-18T15:47:51;31.52;;;29.60;;
41099;SDS011;26844;53.686;-6.346;2022-12-18T15:50:17;47.85;;;44.97;;
41099;SDS011;26844;53.686;-6.346;2022-12-18T15:52:45;48.95;;;46.33;;
41099;SDS011;26844;53.686;-6.346;2022-12-18T15:55:15;78.72;;;74.40;;
41099;SDS011;26844;53.686;-6.346;2022-12-18T15:57:59;65.32;;;62.05;;
41099;SDS011;26844;53.686;-6.346;2022-12-18T16:00:24;66.82;;;63.65;;
41099;SDS011;26844;53.686;-6.346;2022-12-18T16:02:50;74.55;;;70.70;;
41099;SDS011;26844;53.686;-6.346;2022-12-18T16:05:16;82.05;;;77.70;;
41099;SDS011;26844;53.686;-6.346;2022-12-18T16:07:42;101.28;;;96.65;;
41099;SDS011;26844;53.686;-6.346;2022-12-18T16:10:07;122.80;;;116.60;;
41099;SDS011;26844;53.686;-6.346;2022-12-18T16:12:33;132.23;;;125.68;;
41099;SDS011;26844;53.686;-6.346;2022-12-18T16:14:58;125.00;;;118.82;;
41099;SDS011;26844;53.686;-6.346;2022-12-18T16:17:23;149.23;;;141.95;;
41099;SDS011;26844;53.686;-6.346;2022-12-18T16:19:48;161.38;;;153.23;;
41099;SDS011;26844;53.686;-6.346;2022-12-18T16:22:35;135.05;;;128.90;;